Shannon, GA (30172)

8:59 PM EDT on September 19, 2014 (GMT -0400)
Russell | Change Station
CLOSE
Current Station
Airport
Location: Rome,
Elevation: 643 ft
Nearby Weather Stations

Elev 643 ft 34.35 °N, 85.16 °W | Updated 6 minutes ago

Clear
Clear
74 °F
Feels Like 74 °F
N
6
Wind Variable Wind from East

Today
High -- | Low -- °F
--% Chance of Precip.
Yesterday
High -- | Low -- °F
Precip. -- in
7:26 AM 7:41 PM
Waning Crescent, 16% visible
Pressure 30.06 in
Visibility 10.0 miles
Clouds Scattered Clouds 7000 ft
Dew Point 63 °F
Humidity 68%
Rainfall 0.13 in
Snow Depth Not available.
UV 0 out of 12
Pollen 7.10 out of 12
Air Quality Not available.
Flu Activity Not available.
METAR KRMG 200053Z AUTO 10005KT 10SM SCT070 23/17 A3008 RMK AO2 SLP178 T02330172

More Conditions Fewer Conditions

Pressure 30.06 in
Visibility 10.0 miles
Clouds Scattered Clouds 7000 ft
Dew Point 63 °F
Humidity 68%
Rainfall 0.13 in
Snow Depth Not available.
UV 0 out of 12
Pollen 7.10 out of 12
Air Quality Not available.
Flu Activity Not available.
METAR KRMG 200053Z AUTO 10005KT 10SM SCT070 23/17 A3008 RMK AO2 SLP178 T02330172

More Conditions Fewer Conditions

10-Day Weather Forecast

Almanac

Astronomy

Sep. 19, 2014 Rise Set
Actual Time 7:26 AM EDT 7:41 PM EDT
Civil Twilight 7:01 AM EDT 8:06 PM EDT
Nautical Twilight 6:31 AM EDT 8:35 PM EDT
Astronomical Twilight 6:02 AM EDT 9:05 PM EDT
Moon 3:19 AM EDT (9/19) 5:01 PM EDT (9/19)
Length of Visible Light 13h 05m
Length of Day
12h 15m
Tomorrow will be 2m 7s shorter.
Waning Crescent, 16% of the Moon is Illuminated
Today
Waning Crescent
Sep 24
New
Oct 1
First Quarter
Oct 8
Full
Oct 15
Last Quarter

Today's Extremes

State Highs State Lows

Community

WunderPhotos

Upload Photos

1,754,744 photos uploaded!

WunderBlogs® & News

Nearby

Snow Depth

Station Depth Elevation
No new snow has been reported.

Earthquake Activity

City Distance Mag. Time & Date
No recent earthquake activity has been reported nearby.
Minimum magnitude displayed is 2.5.

Coastal Water Temperatures

Place Temperature
No Stations Reporting

Nearby Weather Stations